Time;durP1;ratioP1;P1;durP2;ratioP2;P2;SDS_P1;SDS_P2;PMS_P1;PMS_P2;Temp;Humidity;BMP_temperature;BMP_pressure;BME280_temperature;BME280_humidity;BME280_pressure;Samples;Min_cycle;Max_cycle;Signal;HPM_P1;HPM_P2
2023/03/16 00:07:27;;;;;;;31.20;14.40;;;;;;;3.12;68.70;100545.55;682968;1259;138827;-82
2023/03/16 00:22:31;;;;;;;29.60;14.30;;;;;;;3.01;69.05;100551.64;682906;1262;138977;-85
2023/03/16 00:37:35;;;;;;;47.80;18.20;;;;;;;2.72;68.88;100563.80;682836;1263;139159;-83
2023/03/16 00:52:39;;;;;;;30.60;12.40;;;;;;;2.69;69.50;100559.30;682915;1263;138899;-82
2023/03/16 01:07:43;;;;;;;51.30;20.80;;;;;;;2.68;69.06;100560.04;682641;1263;139288;-83
2023/03/16 01:22:47;;;;;;;41.00;18.30;;;;;;;2.28;69.67;100567.55;682846;1262;138791;-83
2023/03/16 01:37:50;;;;;;;36.20;15.40;;;;;;;2.02;70.29;100566.40;682544;1263;138986;-84
2023/03/16 01:52:58;;;;;;;31.60;13.40;;;;;;;2.17;70.78;100570.68;682659;1260;138732;-84
2023/03/16 02:08:04;;;;;;;22.40;9.30;;;;;;;2.42;71.69;100576.90;682536;1264;139050;-86
2023/03/16 02:23:17;;;;;;;25.90;12.00;;;;;;;2.57;71.84;100581.84;682807;1264;139044;-84
2023/03/16 02:38:21;;;;;;;23.50;11.20;;;;;;;2.54;71.94;100584.02;682444;1265;139234;-84
2023/03/16 02:53:26;;;;;;;39.20;15.70;;;;;;;2.35;72.43;100597.22;682514;1263;138858;-85
2023/03/16 03:08:31;;;;;;;53.10;23.90;;;;;;;2.04;72.34;100605.95;682247;1265;140000;-86
2023/03/16 03:23:35;;;;;;;31.60;14.60;;;;;;;1.98;72.34;100614.54;682344;1265;138905;-84
2023/03/16 03:38:38;;;;;;;24.70;11.20;;;;;;;2.00;72.49;100621.69;682443;1266;150274;-85
2023/03/16 03:53:41;;;;;;;31.80;13.90;;;;;;;2.02;72.57;100631.91;682635;1263;138847;-84
2023/03/16 04:08:54;;;;;;;34.80;15.40;;;;;;;1.85;72.13;100641.71;682733;1262;139441;-84
2023/03/16 04:24:02;;;;;;;28.40;14.70;;;;;;;1.76;73.28;100637.27;682698;1263;139126;-86
2023/03/16 04:39:09;;;;;;;64.40;30.60;;;;;;;1.93;74.03;100637.17;682651;1263;139765;-85
2023/03/16 04:54:12;;;;;;;30.20;12.90;;;;;;;1.92;73.33;100644.30;682609;1262;138716;-86
2023/03/16 05:09:19;;;;;;;19.20;8.70;;;;;;;1.89;73.35;100644.12;682592;1260;139738;-85
2023/03/16 05:24:40;;;;;;;41.30;18.20;;;;;;;1.84;73.79;100653.14;682760;1272;138734;-85
2023/03/16 05:39:43;;;;;;;93.30;43.10;;;;;;;1.74;73.84;100660.14;682802;1262;139206;-83
2023/03/16 05:54:47;;;;;;;49.10;21.50;;;;;;;1.81;74.30;100658.23;682710;1263;138908;-85
2023/03/16 06:09:51;;;;;;;65.80;31.90;;;;;;;2.18;75.03;100675.52;682652;1260;139021;-84
2023/03/16 06:24:54;;;;;;;33.10;16.00;;;;;;;2.80;76.34;100680.85;682835;1262;139082;-83
2023/03/16 06:39:58;;;;;;;42.10;21.30;;;;;;;3.76;76.88;100696.60;682561;1263;138743;-82
2023/03/16 06:55:03;;;;;;;44.30;20.10;;;;;;;3.95;77.17;100704.91;682519;1263;140084;-82
2023/03/16 07:10:13;;;;;;;45.10;19.80;;;;;;;3.90;77.60;100715.92;682741;1263;138658;-83
2023/03/16 07:25:17;;;;;;;41.40;20.90;;;;;;;3.94;77.66;100724.52;682560;1263;139273;-84
2023/03/16 07:40:25;;;;;;;41.80;21.90;;;;;;;4.77;77.54;100728.67;682821;1262;138819;-83
2023/03/16 07:55:37;;;;;;;29.40;14.50;;;;;;;6.37;76.81;100735.31;682776;1264;138938;-84
2023/03/16 08:10:47;;;;;;;19.80;8.70;;;;;;;7.27;74.44;100736.47;682910;1263;138833;-83
2023/03/16 08:25:56;;;;;;;30.80;16.20;;;;;;;7.76;72.67;100749.90;682901;1260;138690;-83
2023/03/16 08:41:00;;;;;;;48.20;22.90;;;;;;;8.51;70.37;100759.84;682804;1260;138727;-83
2023/03/16 08:56:07;;;;;;;20.50;9.90;;;;;;;9.11;69.37;100773.80;682863;1263;138867;-83
2023/03/16 09:11:14;;;;;;;25.60;8.10;;;;;;;10.16;68.41;100775.30;683093;1260;138614;-83
2023/03/16 09:26:17;;;;;;;51.70;19.70;;;;;;;10.78;65.62;100784.77;682980;1260;138938;-85
2023/03/16 09:41:33;;;;;;;18.70;7.50;;;;;;;10.65;64.15;100780.24;683134;1259;138985;-82
2023/03/16 09:56:42;;;;;;;33.20;11.70;;;;;;;11.71;61.97;100781.66;682920;1257;138750;-84
2023/03/16 10:11:52;;;;;;;16.20;6.40;;;;;;;11.71;59.79;100793.02;682953;1260;138835;-81
2023/03/16 10:27:03;;;;;;;25.50;14.00;;;;;;;10.81;58.17;100799.49;682982;1259;138418;-82
2023/03/16 10:42:20;;;;;;;16.30;7.00;;;;;;;9.65;59.22;100801.21;682975;1260;138530;-81
2023/03/16 10:57:33;;;;;;;32.70;16.30;;;;;;;9.01;60.11;100820.62;682835;1259;138069;-83
2023/03/16 11:12:38;;;;;;;21.30;10.00;;;;;;;8.61;61.73;100840.15;682854;1259;138883;-85
2023/03/16 11:28:14;;;;;;;32.60;12.90;;;;;;;7.98;63.89;100853.91;683037;1261;138922;-81
2023/03/16 11:43:40;;;;;;;19.60;10.80;;;;;;;7.76;64.77;100863.58;682863;1263;139704;-82
2023/03/16 11:59:02;;;;;;;53.00;26.30;;;;;;;7.82;65.07;100871.06;682847;1262;139221;-83
2023/03/16 12:14:46;;;;;;;36.00;18.40;;;;;;;7.83;65.17;100868.04;682940;1262;138789;-82
2023/03/16 12:29:58;;;;;;;23.90;11.50;;;;;;;8.03;64.98;100873.65;682749;1259;138821;-82
2023/03/16 12:45:16;;;;;;;11.00;6.60;;;;;;;7.88;65.64;100875.16;682669;1261;139026;-83
2023/03/16 13:00:20;;;;;;;129.60;54.00;;;;;;;7.70;68.65;100892.19;682807;1262;138671;-81
2023/03/16 13:15:28;;;;;;;22.50;10.30;;;;;;;8.60;69.15;100895.88;682568;1260;138712;-83
2023/03/16 13:30:33;;;;;;;26.60;14.30;;;;;;;8.07;69.29;100900.03;682720;1262;138693;-86
2023/03/16 13:45:38;;;;;;;11.10;7.20;;;;;;;7.96;69.78;100912.60;682690;1262;139000;-83
2023/03/16 14:00:44;;;;;;;48.10;23.10;;;;;;;8.06;70.65;100919.96;682767;1260;138335;-85
2023/03/16 14:15:47;;;;;;;111.90;45.20;;;;;;;8.02;70.83;100928.25;682385;1259;140475;-82
2023/03/16 14:31:06;;;;;;;16.10;8.90;;;;;;;8.18;70.77;100926.80;682707;1263;138995;-84
2023/03/16 14:46:21;;;;;;;22.70;9.00;;;;;;;8.20;70.43;100928.73;682591;1266;138740;-83
2023/03/16 15:01:25;;;;;;;494.10;211.90;;;;;;;8.51;70.48;100930.87;682541;1260;138749;-86
2023/03/16 15:16:29;;;;;;;747.80;361.10;;;;;;;10.48;69.22;100933.33;682435;1266;139191;-85
2023/03/16 15:31:33;;;;;;;455.10;222.40;;;;;;;12.33;67.50;100942.05;682575;1266;139563;-84
2023/03/16 15:46:36;;;;;;;110.20;50.10;;;;;;;13.07;63.77;100947.73;681663;1259;1188317;-84
2023/03/16 16:01:46;;;;;;;132.60;64.90;;;;;;;12.46;62.09;100953.83;682498;1259;139175;-83
2023/03/16 16:16:50;;;;;;;117.50;44.30;;;;;;;12.16;61.94;100963.16;682432;1259;138699;-84
2023/03/16 16:31:55;;;;;;;72.40;30.20;;;;;;;10.57;62.13;100982.34;682496;1259;139244;-81
2023/03/16 16:47:28;;;;;;;117.80;52.10;;;;;;;9.74;62.54;101000.58;682682;1260;138164;-83
2023/03/16 17:02:46;;;;;;;286.60;117.10;;;;;;;8.93;63.04;101007.71;682561;1259;139365;-83
2023/03/16 17:17:51;;;;;;;478.50;163.90;;;;;;;7.79;63.94;101020.11;682738;1263;139223;-81
2023/03/16 17:33:05;;;;;;;283.90;97.00;;;;;;;7.43;64.99;101031.63;682285;1258;139476;-83
2023/03/16 17:48:13;;;;;;;236.20;84.20;;;;;;;7.15;65.25;101051.10;682624;1263;139034;-82
2023/03/16 18:03:17;;;;;;;;;;;;;;;6.74;65.81;101064.70;682384;1264;138915;-86
2023/03/16 18:18:25;;;;;;;140.50;75.00;;;;;;;6.14;67.14;101066.25;682645;1264;125041;-82
2023/03/16 18:33:36;;;;;;;279.90;101.90;;;;;;;5.92;67.46;101084.14;682458;1262;138856;-85
2023/03/16 18:48:42;;;;;;;294.90;115.80;;;;;;;5.62;68.34;101100.52;682669;1265;139294;-82
2023/03/16 19:03:47;;;;;;;205.30;93.20;;;;;;;5.55;67.61;101118.22;682494;1265;139078;-84
2023/03/16 19:18:52;;;;;;;203.10;84.70;;;;;;;5.19;67.80;101126.86;682595;1267;139029;-83
2023/03/16 19:33:57;;;;;;;456.40;188.90;;;;;;;4.62;68.83;101135.13;682370;1275;138771;-82
2023/03/16 19:49:01;;;;;;;511.00;214.80;;;;;;;4.36;69.53;101139.84;682706;1263;138945;-83
2023/03/16 20:04:17;;;;;;;403.00;163.60;;;;;;;4.39;70.31;101153.91;682632;1264;140766;-84
2023/03/16 20:19:20;;;;;;;426.30;158.00;;;;;;;4.36;70.41;101156.84;682541;1260;139089;-82
2023/03/16 20:34:27;;;;;;;295.10;107.50;;;;;;;4.06;70.42;101167.41;682599;1264;139115;-82
2023/03/16 20:49:32;;;;;;;230.30;90.40;;;;;;;3.81;71.05;101162.16;682684;1262;139272;-84
2023/03/16 21:04:38;;;;;;;159.60;62.50;;;;;;;3.77;71.29;101162.86;682799;1262;139176;-85
2023/03/16 21:19:42;;;;;;;108.50;45.50;;;;;;;3.72;71.20;101162.38;682736;1260;139135;-83
2023/03/16 21:34:47;;;;;;;57.90;26.10;;;;;;;3.63;71.03;101171.98;682744;1260;138902;-83
2023/03/16 21:49:53;;;;;;;63.90;37.90;;;;;;;3.47;70.85;101175.58;682495;1262;139081;-84
2023/03/16 22:04:59;;;;;;;55.90;28.80;;;;;;;3.27;71.02;101173.71;682675;1262;138556;-85
2023/03/16 22:20:14;;;;;;;130.70;49.80;;;;;;;3.14;71.03;101166.84;682656;1264;138642;-84
2023/03/16 22:35:32;;;;;;;505.00;183.50;;;;;;;2.97;70.73;101179.27;682401;1263;139061;-84
2023/03/16 22:50:35;;;;;;;518.80;188.60;;;;;;;2.92;70.41;101192.48;682446;1263;139397;-85
2023/03/16 23:05:38;;;;;;;365.30;124.30;;;;;;;2.75;70.39;101223.20;682625;1263;139266;-86
2023/03/16 23:20:42;;;;;;;335.60;116.10;;;;;;;2.68;70.92;101232.98;682433;1263;139992;-83
2023/03/16 23:35:45;;;;;;;340.90;120.50;;;;;;;2.56;70.77;101216.02;682583;1263;139413;-84
2023/03/16 23:50:51;;;;;;;354.40;120.00;;;;;;;2.44;70.51;101203.55;682493;1263;139453;-83
